Flight Track Log - Related Links

Times and Time Zones

All times are in EDT time to prevent confusion due to time zone crossing. See the SWA542 flight status page for this flight to view local times or setup timezone preferences in your user account.

Time Position Orientation Groundspeed Altitude Reporting Facility
EDT Latitude Longitude Course Direction KTS MPH feet Rate Location/Type
Sun 11:23:58 AM 28.4500 -81.3167 360° North 151 174 700  Level Orlando TRACON
Sun 11:24:40 AM 28.4667 -81.3167 360° North 172 198 1,900 1,938 Climbing Orlando TRACON
Sun 11:25:34 AM 28.5333 -81.3167 360° North 225 259 3,800 2,150 Climbing Orlando TRACON
Sun 11:26:40 AM 28.5833 -81.3500 330° Northwest 293 337 6,200 1,983 Climbing Orlando TRACON
Sun 11:27:35 AM 28.5667 -81.4333 257° West 290 334 7,800 2,076 Climbing Orlando TRACON
Sun 11:29:45 AM 28.5506 -81.6306 265° West 301 346 12,600 2,400 Climbing Jacksonville Center
Sun 11:30:45 AM 28.5225 -81.7372 253° West 324 373 15,400 2,700 Climbing Jacksonville Center
Sun 11:31:45 AM 28.4922 -81.8486 253° West 356 410 18,000 2,650 Climbing Jacksonville Center
Sun 11:32:45 AM 28.4556 -81.9669 251° West 380 437 20,700 2,800 Climbing Jacksonville Center
Sun 11:33:45 AM 28.4167 -82.0947 251° West 393 452 23,600 2,500 Climbing Jacksonville Center
Sun 11:34:45 AM 28.3797 -82.2156 251° West 398 458 25,700 1,850 Climbing Jacksonville Center
Sun 11:35:45 AM 28.3408 -82.3383 250° West 410 472 27,300 1,815 Climbing Jacksonville Center
Sun 11:36:44 AM 28.3017 -82.4636 250° West 420 483 29,300 2,350 Climbing Jacksonville Center
Sun 11:37:45 AM 28.2664 -82.5839 252° West 420 483 32,000 2,182 Climbing Jacksonville Center
Sun 11:38:45 AM 28.2667 -82.7042 270° West 388 447 33,700 2,100 Climbing Jacksonville Center
Sun 11:39:45 AM 28.2897 -82.8194 283° West 383 441 36,200 2,050 Climbing Jacksonville Center
Sun 11:40:45 AM 28.3086 -82.9186 282° West 371 427 37,800 900 Climbing Jacksonville Center
Sun 11:41:45 AM 28.3314 -83.0294 283° West 365 420 38,000 100 Climbing Jacksonville Center
Sun 11:42:45 AM 28.3500 -83.1425 281° West 365 420 38,000  Level Jacksonville Center
Sun 11:43:45 AM 28.3706 -83.2536 282° West 370 426 38,000  Level Jacksonville Center
Sun 11:44:45 AM 28.3892 -83.3644 281° West 370 426 38,000  Level Jacksonville Center
Sun 11:45:45 AM 28.4072 -83.4778 280° West 370 426 38,000  Level Jacksonville Center
Sun 11:46:45 AM 28.4297 -83.5961 282° West 363 418 38,000  Level Jacksonville Center
Sun 11:47:45 AM 28.4500 -83.7072 282° West 355 409 38,000  Level Jacksonville Center
Sun 11:48:45 AM 28.4681 -83.8158 281° West 355 409 38,000  Level Jacksonville Center
Sun 11:49:45 AM 28.4881 -83.9247 282° West 355 409 38,000  Level Jacksonville Center
Sun 11:50:45 AM 28.5058 -84.0358 280° West 355 409 38,000  Level Jacksonville Center
Sun 11:51:45 AM 28.5256 -84.1472 281° West 355 409 38,000  Level Jacksonville Center
Sun 11:52:45 AM 28.5453 -84.2608 281° West 355 409 38,000  Level Jacksonville Center
Sun 11:53:45 AM 28.5608 -84.3744 279° West 360 414 38,000  Level Jacksonville Center
Sun 11:54:45 AM 28.5825 -84.4883 282° West 366 421 38,000  Level Jacksonville Center
Sun 11:55:45 AM 28.6019 -84.5975 281° West 366 421 38,000  Level Jacksonville Center
Sun 11:56:45 AM 28.6211 -84.7089 281° West 366 421 38,000  Level Jacksonville Center
Sun 11:57:45 AM 28.6406 -84.8203 281° West 366 421 38,000  Level Jacksonville Center
Sun 11:58:45 AM 28.6597 -84.9319 281° West 366 421 38,000  Level Jacksonville Center
Sun 11:59:45 AM 28.6767 -85.0436 280° West 361 415 38,000  Level Jacksonville Center
Sun 12:00:45 PM 28.6956 -85.1575 281° West 361 415 38,000  Level Jacksonville Center
Sun 12:01:45 PM 28.7144 -85.2692 281° West 361 415 38,000  Level Jacksonville Center
Sun 12:02:45 PM 28.7311 -85.3808 280° West 361 415 38,000  Level Jacksonville Center
Sun 12:03:45 PM 28.7517 -85.4928 282° West 361 415 38,000  Level Jacksonville Center
Sun 12:04:45 PM 28.7683 -85.6044 280° West 361 415 38,000  Level Jacksonville Center
Sun 12:05:45 PM 28.7867 -85.7186 280° West 366 421 38,000  Level Jacksonville Center
Sun 12:06:45 PM 28.8031 -85.8281 280° West 366 421 38,000  Level Jacksonville Center
Sun 12:07:45 PM 28.8233 -85.9425 281° West 366 421 38,000  Level Jacksonville Center
Sun 12:08:45 PM 28.8394 -86.0494 280° West 366 421 38,000  Level Jacksonville Center
Sun 12:09:45 PM 28.8575 -86.1639 280° West 366 421 38,000  Level Jacksonville Center
Sun 12:10:45 PM 28.8772 -86.2808 281° West 366 421 38,000  Level Jacksonville Center
Sun 12:11:45 PM 28.8953 -86.3928 280° West 366 421 38,000  Level Jacksonville Center
Sun 12:12:45 PM 28.9108 -86.5094 279° West 371 427 38,000  Level Jacksonville Center
Sun 12:13:45 PM 28.9283 -86.6239 280° West 371 427 38,000  Level Jacksonville Center
Sun 12:14:45 PM 28.9458 -86.7361 280° West 371 427 38,000  Level Jacksonville Center
Sun 12:17:03 PM 28.9831 -86.9881 280° West 368 423 38,000  Level Houston Center
Sun 12:18:05 PM 29.0014 -87.1017 280° West 367 422 38,000  Level Houston Center
Sun 12:19:07 PM 29.0183 -87.2147 280° West 364 419 38,000  Level Houston Center
Sun 12:20:09 PM 29.0339 -87.3272 279° West 361 415 38,000  Level Houston Center
Sun 12:21:11 PM 29.0542 -87.4608 280° West 358 412 38,000  Level Houston Center
Sun 12:22:13 PM 29.0697 -87.5728 279° West 359 413 38,000  Level Houston Center
Sun 12:23:16 PM 29.0861 -87.6853 279° West 359 413 38,000  Level Houston Center
Sun 12:24:18 PM 29.1014 -87.7972 279° West 358 412 38,000  Level Houston Center
Sun 12:25:20 PM 29.1167 -87.9097 279° West 360 414 38,000  Level Houston Center
Sun 12:26:22 PM 29.1333 -88.0219 280° West 360 414 38,000  Level Houston Center
Sun 12:27:24 PM 29.1514 -88.1508 279° West 353 406 38,000  Level Houston Center
Sun 12:28:26 PM 29.1658 -88.2608 279° West 353 406 38,000  Level Houston Center
Sun 12:29:28 PM 29.1814 -88.3711 279° West 352 405 38,000  Level Houston Center
Sun 12:30:30 PM 29.1964 -88.4800 279° West 350 403 38,000  Level Houston Center
Sun 12:31:32 PM 29.2144 -88.6122 279° West 351 404 38,000  Level Houston Center
Sun 12:32:35 PM 29.2300 -88.7225 279° West 352 405 38,000  Level Houston Center
Sun 12:33:37 PM 29.2442 -88.8328 278° West 352 405 38,000  Level Houston Center
Sun 12:34:39 PM 29.2594 -88.9422 279° West 352 405 38,000  Level Houston Center
Sun 12:35:40 PM 29.2706 -89.0333 278° West 358 412 38,000  Level Houston Center
Sun 12:36:43 PM 29.2894 -89.1681 279° West 359 413 38,000  Level Houston Center
Sun 12:37:45 PM 29.3069 -89.3036 278° West 361 415 38,000  Level Houston Center
Sun 12:38:47 PM 29.3217 -89.4167 279° West 361 415 38,000  Level Houston Center
Sun 12:39:49 PM 29.3364 -89.5292 279° West 358 412 38,000  Level Houston Center
Sun 12:40:51 PM 29.3503 -89.6433 278° West 361 415 38,000  Level Houston Center
Sun 12:41:54 PM 29.3650 -89.7569 278° West 362 417 38,000  Level Houston Center
Sun 12:42:56 PM 29.3792 -89.8686 278° West 356 410 38,000  Level Houston Center
Sun 12:43:58 PM 29.3925 -89.9814 278° West 356 410 38,000  Level Houston Center
Sun 12:45:00 PM 29.4092 -90.1161 278° West 356 410 38,000  Level Houston Center
Sun 12:46:02 PM 29.4239 -90.2269 279° West 353 406 38,000  Level Houston Center
Sun 12:47:04 PM 29.4372 -90.3400 278° West 355 409 38,000  Level Houston Center
Sun 12:48:06 PM 29.4508 -90.4525 278° West 356 410 38,000  Level Houston Center
Sun 12:49:08 PM 29.4647 -90.5664 278° West 357 411 38,000  Level Houston Center
Sun 12:50:11 PM 29.4786 -90.6775 278° West 357 411 38,000  Level Houston Center
Sun 12:51:12 PM 29.4942 -90.8133 278° West 358 412 38,000  Level Houston Center
Sun 12:52:14 PM 29.5097 -90.9286 279° West 362 417 38,000  Level Houston Center
Sun 12:53:16 PM 29.5225 -91.0417 277° West 359 413 38,000  Level Houston Center
Sun 12:54:18 PM 29.5369 -91.1547 278° West 359 413 38,000  Level Houston Center
Sun 12:55:20 PM 29.5467 -91.2694 276° West 361 415 38,000  Level Houston Center
Sun 12:56:22 PM 29.5547 -91.3825 275° West 357 411 38,000  Level Houston Center
Sun 12:57:24 PM 29.5631 -91.5164 274° West 354 407 38,000  Level Houston Center
Sun 12:58:26 PM 29.5694 -91.6269 274° West 350 403 38,000  Level Houston Center
Sun 12:59:28 PM 29.5747 -91.7442 273° West 350 403 38,000  Level Houston Center
Sun 01:00:30 PM 29.5808 -91.8553 274° West 350 403 38,000  Level Houston Center
Sun 01:01:32 PM 29.5883 -91.9664 274° West 349 402 38,000  Level Houston Center
Sun 01:02:34 PM 29.5956 -92.0783 274° West 353 406 38,000  Level Houston Center
Sun 01:03:36 PM 29.6019 -92.1906 274° West 352 405 38,000  Level Houston Center
Sun 01:04:38 PM 29.6092 -92.3042 274° West 355 409 38,000  Level Houston Center
Sun 01:05:40 PM 29.6169 -92.4406 274° West 358 412 38,000  Level Houston Center
Sun 01:06:42 PM 29.6239 -92.5544 274° West 356 410 38,000  Level Houston Center
Sun 01:07:44 PM 29.6303 -92.6689 274° West 358 412 38,000  Level Houston Center
Sun 01:08:46 PM 29.6358 -92.7842 273° West 361 415 38,000  Level Houston Center
Sun 01:09:48 PM 29.6431 -92.8983 274° West 358 412 38,000  Level Houston Center
Sun 01:10:50 PM 29.6483 -93.0131 273° West 360 414 38,000  Level Houston Center
Sun 01:11:52 PM 29.6564 -93.1500 274° West 358 412 38,000  Level Houston Center
Sun 01:12:54 PM 29.6614 -93.2647 273° West 359 413 38,000  Level Houston Center
Sun 01:13:56 PM 29.6678 -93.3786 274° West 357 411 38,000  Level Houston Center
Sun 01:14:58 PM 29.6733 -93.4933 273° West 358 412 38,000  Level Houston Center
Sun 01:16:01 PM 29.6786 -93.6061 273° West 355 409 38,000  Level Houston Center
Sun 01:17:03 PM 29.6842 -93.7203 273° West 356 410 38,000  Level Houston Center
Sun 01:18:05 PM 29.6897 -93.8339 273° West 355 409 38,000  Level Houston Center
Sun 01:19:07 PM 29.6956 -93.9697 273° West 354 407 38,000  Level Houston Center
Sun 01:20:09 PM 29.7011 -94.0833 273° West 355 409 38,000  Level Houston Center
Sun 01:21:11 PM 29.7067 -94.2014 273° West 355 409 38,000  Level Houston Center
Sun 01:22:13 PM 29.7108 -94.3144 272° West 355 409 38,000  Level Houston Center
Sun 01:23:15 PM 29.7164 -94.4281 273° West 357 411 38,000  Level Houston Center
Sun 01:24:18 PM 29.7214 -94.5417 273° West 358 412 38,000  Level Houston Center
Sun 01:25:20 PM 29.7256 -94.6550 272° West 357 411 38,000  Level Houston Center
Sun 01:26:22 PM 29.7319 -94.7911 273° West 356 410 38,000  Level Houston Center
Sun 01:27:24 PM 29.7361 -94.9053 272° West 359 413 38,000  Level Houston Center
Sun 01:28:26 PM 29.7408 -95.0178 273° West 357 411 38,000  Level Houston Center
Sun 01:29:28 PM 29.7475 -95.1283 274° West 355 409 38,000  Level Houston Center
Sun 01:30:30 PM 29.7511 -95.2631 272° West 357 411 38,000  Level Houston Center
Sun 01:31:32 PM 29.7542 -95.3733 272° West 351 404 38,000  Level Houston Center
Sun 01:32:35 PM 29.7569 -95.4842 272° West 349 402 38,000  Level Houston Center
Sun 01:33:37 PM 29.7614 -95.5956 273° West 350 403 38,000  Level Houston Center
Sun 01:34:39 PM 29.7650 -95.7067 272° West 348 400 38,000  Level Houston Center
Sun 01:35:41 PM 29.7683 -95.8422 272° West 354 407 38,000  Level Houston Center
Sun 01:36:43 PM 29.7717 -95.9542 272° West 352 405 38,000  Level Houston Center
Sun 01:37:45 PM 29.7744 -96.0622 272° West 353 406 38,000  Level Houston Center
Sun 01:38:47 PM 29.7786 -96.1756 272° West 356 410 38,000  Level Houston Center
Sun 01:39:49 PM 29.7892 -96.3100 275° West 354 407 38,000  Level Houston Center
Sun 01:40:51 PM 29.7964 -96.4219 274° West 352 405 38,000  Level Houston Center
Sun 01:41:53 PM 29.8047 -96.5342 275° West 353 406 38,000  Level Houston Center
Sun 01:42:56 PM 29.8125 -96.6458 275° West 352 405 38,000 -1,056 Level Houston Center
Sun 01:43:58 PM 29.8217 -96.7561 276° West 350 403 35,800 -2,516 Descending Houston Center
Sun 01:45:00 PM 29.8308 -96.8872 275° West 347 399 32,800 -2,274 Descending Houston Center
Sun 01:46:02 PM 29.8400 -97.0042 275° West 366 421 31,100 -1,887 Descending Houston Center
Sun 01:47:04 PM 29.8472 -97.1247 274° West 377 434 28,900 -2,226 Descending Houston Center
Sun 01:48:06 PM 29.8564 -97.2400 275° West 367 422 26,500 -2,129 Descending Houston Center
Sun 01:49:08 PM 29.8639 -97.3539 274° West 360 414 24,500 -2,236 Descending Houston Center
Sun 01:49:56 PM 29.8686 -97.4458 273° West 361 415 22,400 -2,733 Descending Houston Center
Sun 01:50:38 PM 29.8756 -97.5367 275° West 354 407 20,400 -2,842 Descending Houston Center
Sun 01:51:12 PM 29.8800 -97.6083 274° West 356 410 18,800 -2,557 Descending Houston Center
Sun 01:51:39 PM 29.8836 -97.6633 274° West 363 418 17,800 -2,476 Descending Houston Center
Sun 01:52:15 PM 29.8883 -97.7267 275° West 369 425 16,200 -2,945 Descending Houston Center
Sun 01:52:34 PM 29.8922 -97.7708 276° West 370 426 15,100 -2,613 Descending Houston Center
Sun 01:53:17 PM 29.8961 -97.8489 273° West 355 409 13,500 -2,361 Descending Houston Center
Sun 01:53:35 PM 29.8881 -97.8822 254° West 355 409 12,700 -2,419 Descending Houston Center
Sun 01:54:19 PM 29.8583 -97.9542 245° Southwest 357 411 11,000 -2,262 Descending Houston Center
Sun 01:54:36 PM 29.8456 -97.9864 245° Southwest 356 410 10,400 -871 Descending Houston Center
Sun 01:55:21 PM 29.8153 -98.0575 244° Southwest 327 376 10,100 -358 Descending Houston Center
Sun 01:55:43 PM 29.8006 -98.0883 241° Southwest 293 337 10,000 -484 Descending Houston Center
Sun 01:56:23 PM 29.7808 -98.1383 246° West 281 323 9,600 -700 Descending Houston Center
Sun 01:56:43 PM 29.7683 -98.1694 245° Southwest 266 306 9,300 -968 Descending Houston Center
Sun 01:57:25 PM 29.7444 -98.2244 243° Southwest 279 321 8,600 -1,241 Descending Houston Center
Sun 01:58:39 PM 29.7028 -98.3219 244° Southwest 278 320 6,900 -1,111 Descending Houston Center
Sun 01:59:40 PM 29.6717 -98.3931 243° Southwest 244 281 6,100 -696 Descending Houston Center
Sun 02:00:31 PM 29.6744 -98.4492 273° West 228 262 5,600 -1,105 Descending Houston Center
Sun 02:01:34 PM 29.7089 -98.5175 300° West 227 261 4,000 -1,248 Descending Houston Center
Sun 02:02:36 PM 29.6839 -98.5719 242° Southwest 215 247 3,000 -484 Descending Houston Center
Sun 02:03:38 PM 29.6289 -98.5939 199° South 210 242 3,000 -290 Level Houston Center
Sun 02:04:40 PM 29.5953 -98.5522 133° Southeast 180 207 2,400 -677 Descending Houston Center
Sun 02:05:42 PM 29.5664 -98.5150 132° Southeast 151 174 1,600 -774 Descending Houston Center
Sun 02:06:44 PM 29.5419 -98.4828 131° Southeast 137 158 800 -774 Descending Houston Center
Sun 02:08:00 PM 29.5333 -98.4667 186° South  Level FlightAware Approximate
Sun 02:15:00 PM 29.5340 -98.4691 186° South  Level Estimated

Login

Don't have an account? Register now (free) for customized features, flight alerts, and more!